Time;durP1;ratioP1;P1;durP2;ratioP2;P2;SDS_P1;SDS_P2;PMS_P1;PMS_P2;Temp;Humidity;BMP_temperature;BMP_pressure;BME280_temperature;BME280_humidity;BME280_pressure;Samples;Min_cycle;Max_cycle;Signal;HPM_P1;HPM_P2
2022/05/03 00:02:12;;;;;;;9.02;7.60;;;11.90;99.90;;;;;;4958407;28;20153;-80
2022/05/03 00:05:02;;;;;;;12.23;7.78;;;11.80;99.90;;;;;;4947138;28;20030;-80
2022/05/03 00:07:43;;;;;;;13.10;8.45;;;11.80;99.90;;;;;;4962723;28;20023;-80
2022/05/03 00:10:13;;;;;;;9.20;7.57;;;11.70;99.90;;;;;;4948309;28;20476;-81
2022/05/03 00:12:48;;;;;;;13.63;8.30;;;11.70;99.90;;;;;;4959766;28;20027;-80
2022/05/03 00:15:16;;;;;;;10.73;8.43;;;11.70;99.90;;;;;;4959712;28;20242;-80
2022/05/03 00:17:43;;;;;;;12.40;8.75;;;11.60;99.90;;;;;;4961361;28;20046;-80
2022/05/03 00:20:09;;;;;;;12.20;7.82;;;11.50;99.90;;;;;;4956480;28;20018;-81
2022/05/03 00:22:35;;;;;;;11.75;9.07;;;11.50;99.90;;;;;;4958501;28;20058;-80
2022/05/03 00:25:01;;;;;;;11.85;8.77;;;11.40;99.90;;;;;;4963402;28;20476;-80
2022/05/03 00:27:28;;;;;;;12.40;8.80;;;11.50;99.90;;;;;;4959678;28;20082;-81
2022/05/03 00:29:57;;;;;;;12.93;8.60;;;11.40;99.90;;;;;;4962445;28;20031;-80
2022/05/03 00:32:24;;;;;;;12.20;9.40;;;11.30;99.90;;;;;;4946344;28;20019;-80
2022/05/03 00:34:50;;;;;;;12.52;9.85;;;11.30;99.90;;;;;;4959991;28;20031;-79
2022/05/03 00:37:16;;;;;;;11.65;9.00;;;11.20;99.90;;;;;;4962138;28;20093;-79
2022/05/03 00:39:42;;;;;;;13.35;9.35;;;11.20;99.90;;;;;;4960828;28;20027;-79
2022/05/03 00:42:21;;;;;;;15.88;10.30;;;11.20;99.90;;;;;;4955610;28;20035;-79
2022/05/03 00:45:08;;;;;;;13.30;9.75;;;11.10;99.90;;;;;;4959605;28;20027;-82
2022/05/03 00:47:54;;;;;;;15.82;10.10;;;11.10;99.90;;;;;;4937443;28;20042;-83
2022/05/03 00:50:41;;;;;;;12.15;9.52;;;11.00;99.90;;;;;;4960288;28;20035;-81
2022/05/03 00:53:26;;;;;;;12.48;9.18;;;11.00;99.90;;;;;;4958826;28;20034;-79
2022/05/03 00:56:12;;;;;;;11.50;9.40;;;11.00;99.90;;;;;;4942716;28;20449;-79
2022/05/03 00:58:49;;;;;;;11.75;8.68;;;10.90;99.90;;;;;;4963795;28;20031;-81
2022/05/03 01:01:50;;;;;;;11.35;8.57;;;10.80;99.90;;;;;;4964711;28;20048;-81
2022/05/03 01:04:18;;;;;;;10.40;8.43;;;10.80;99.90;;;;;;4886775;29;20153;-79
2022/05/03 01:07:03;;;;;;;11.52;8.80;;;10.80;99.90;;;;;;4946938;28;20113;-81
2022/05/03 01:09:40;;;;;;;12.57;9.43;;;10.80;99.90;;;;;;4968866;28;20391;-81
2022/05/03 01:12:32;;;;;;;15.15;10.30;;;10.70;99.90;;;;;;4947458;28;20391;-80
2022/05/03 01:15:06;;;;;;;12.90;9.32;;;10.70;99.90;;;;;;4967692;28;20027;-81
2022/05/03 01:17:44;;;;;;;12.73;8.82;;;10.60;99.90;;;;;;4964338;28;20426;-80
2022/05/03 01:20:31;;;;;;;11.27;8.63;;;10.60;99.90;;;;;;4964459;28;20042;-81
2022/05/03 01:23:14;;;;;;;12.38;8.98;;;10.60;99.90;;;;;;4927443;28;20073;-80
2022/05/03 01:25:49;;;;;;;15.87;8.90;;;10.60;99.90;;;;;;4964365;28;20062;-80
2022/05/03 01:28:21;;;;;;;9.75;7.65;;;10.50;99.90;;;;;;4950884;28;20022;-80
2022/05/03 01:30:50;;;;;;;12.05;7.82;;;10.50;99.90;;;;;;4968771;28;20085;-80
2022/05/03 01:33:30;;;;;;;11.45;7.63;;;10.50;99.90;;;;;;4966779;28;20495;-81
2022/05/03 01:36:00;;;;;;;11.38;7.90;;;10.40;99.90;;;;;;4963677;28;20472;-80
2022/05/03 01:38:47;;;;;;;10.98;7.85;;;10.40;99.90;;;;;;4966163;28;20037;-80
2022/05/03 01:41:32;;;;;;;12.20;8.60;;;10.40;99.90;;;;;;4941910;28;20026;-80
2022/05/03 01:44:13;;;;;;;11.40;8.23;;;10.30;99.90;;;;;;4965166;28;20030;-80
2022/05/03 01:46:39;;;;;;;10.45;7.90;;;10.30;99.90;;;;;;4951845;28;20118;-80
2022/05/03 01:52:29;;;;;;;14.00;7.75;;;10.20;99.90;;;;;;4967426;28;20037;-81
2022/05/03 01:55:15;;;;;;;9.40;7.85;;;10.20;99.90;;;;;;4951292;28;20097;-80
2022/05/03 01:58:17;;;;;;;12.18;8.18;;;10.20;99.90;;;;;;4964391;28;20089;-81
2022/05/03 02:00:52;;;;;;;10.40;7.35;;;10.10;99.90;;;;;;4960808;28;20039;-76
2022/05/03 02:03:29;;;;;;;11.40;8.45;;;10.10;99.90;;;;;;4965389;28;20041;-76
2022/05/03 02:06:12;;;;;;;10.75;8.50;;;10.10;99.90;;;;;;5010216;23;20042;-80
2022/05/03 02:08:56;;;;;;;10.73;7.72;;;10.00;99.90;;;;;;4976368;28;20023;-82
2022/05/03 02:11:25;;;;;;;11.25;7.75;;;10.00;99.90;;;;;;4976676;28;20029;-83
2022/05/03 02:17:18;;;;;;;12.90;8.15;;;10.00;99.90;;;;;;4981961;28;20417;-82
2022/05/03 02:20:11;;;;;;;13.10;7.65;;;9.90;99.90;;;;;;4982123;28;20023;-83
2022/05/03 02:23:15;;;;;;;9.47;7.47;;;9.90;99.90;;;;;;4981652;28;20038;-80
2022/05/03 02:26:24;;;;;;;12.02;7.35;;;9.90;99.90;;;;;;4979393;28;20519;-84
2022/05/03 02:29:23;;;;;;;10.98;7.90;;;9.80;99.90;;;;;;4978596;28;20038;-79
2022/05/03 02:32:02;;;;;;;10.95;7.22;;;9.80;99.90;;;;;;4973621;28;20042;-80
2022/05/03 02:34:53;;;;;;;10.23;7.45;;;9.80;99.90;;;;;;4978517;28;20030;-81
2022/05/03 02:37:23;;;;;;;11.02;7.70;;;9.80;99.90;;;;;;4979558;28;20023;-81
2022/05/03 02:40:08;;;;;;;11.75;7.72;;;9.70;99.90;;;;;;4979087;28;20027;-83
2022/05/03 02:42:35;;;;;;;13.30;7.05;;;9.70;99.90;;;;;;4977304;28;20028;-81
2022/05/03 02:45:05;;;;;;;9.73;6.82;;;9.60;99.90;;;;;;4981780;28;20033;-83
2022/05/03 02:48:14;;;;;;;10.43;7.30;;;9.60;99.90;;;;;;4989617;28;20028;-83
2022/05/03 02:50:55;;;;;;;12.93;7.82;;;9.50;99.90;;;;;;4961660;28;20042;-85
2022/05/03 02:53:45;;;;;;;10.18;7.43;;;9.50;99.90;;;;;;4977285;28;20058;-83
2022/05/03 02:56:17;;;;;;;11.07;7.63;;;9.50;99.90;;;;;;4977632;28;20058;-83
2022/05/03 02:58:54;;;;;;;9.90;7.30;;;9.40;99.90;;;;;;4977920;28;20057;-79
2022/05/03 03:02:11;;;;;;;13.27;7.72;;;9.40;99.90;;;;;;4979818;28;20023;-82
2022/05/03 03:05:13;;;;;;;12.43;7.63;;;9.40;99.90;;;;;;4981931;28;20030;-81
2022/05/03 03:07:53;;;;;;;10.27;7.05;;;9.40;99.90;;;;;;4997492;28;20065;-79
2022/05/03 03:10:30;;;;;;;10.55;7.45;;;9.40;99.90;;;;;;4978085;28;20035;-82
2022/05/03 03:13:30;;;;;;;12.13;7.22;;;9.30;99.90;;;;;;4980033;28;20368;-82
2022/05/03 03:15:59;;;;;;;9.82;7.57;;;9.30;99.90;;;;;;4976548;28;20153;-84
2022/05/03 03:18:26;;;;;;;12.18;7.93;;;9.30;99.90;;;;;;4974267;28;20026;-84
2022/05/03 03:20:59;;;;;;;9.02;7.43;;;9.20;99.90;;;;;;4976716;28;20037;-80
2022/05/03 03:23:28;;;;;;;10.40;7.50;;;9.20;99.90;;;;;;4972432;28;20077;-83
2022/05/03 03:25:54;;;;;;;10.63;7.30;;;9.20;99.90;;;;;;4984920;28;20170;-82
2022/05/03 03:28:22;;;;;;;9.65;7.18;;;9.20;99.90;;;;;;4975888;28;20078;-81
2022/05/03 03:30:52;;;;;;;8.68;6.93;;;9.30;99.90;;;;;;4975560;28;20035;-82
2022/05/03 03:33:22;;;;;;;8.90;7.05;;;9.30;99.90;;;;;;4991018;28;20129;-81
2022/05/03 03:36:01;;;;;;;10.30;7.82;;;9.20;99.90;;;;;;4974996;28;20035;-80
2022/05/03 03:38:35;;;;;;;10.88;7.68;;;9.30;99.90;;;;;;4975547;28;20046;-83
2022/05/03 03:41:07;;;;;;;10.90;7.22;;;9.30;99.90;;;;;;4978901;28;20030;-80
2022/05/03 03:43:33;;;;;;;10.38;7.55;;;9.30;99.90;;;;;;4977570;28;20027;-81
2022/05/03 03:45:59;;;;;;;9.52;7.40;;;9.20;99.90;;;;;;4997403;23;20034;-78
2022/05/03 03:48:24;;;;;;;10.15;7.57;;;9.20;99.90;;;;;;4981261;28;20091;-78
2022/05/03 03:50:53;;;;;;;11.10;8.23;;;9.20;99.90;;;;;;4984783;28;20027;-79
2022/05/03 03:53:19;;;;;;;11.73;7.95;;;9.20;99.90;;;;;;4988149;28;20077;-78
2022/05/03 03:55:46;;;;;;;9.57;6.90;;;9.10;99.90;;;;;;4980890;28;20027;-77
2022/05/03 03:58:13;;;;;;;14.35;8.43;;;9.10;99.90;;;;;;4984019;28;20026;-78
2022/05/03 04:00:39;;;;;;;9.52;7.45;;;9.10;99.90;;;;;;5016960;23;20173;-76
2022/05/03 04:03:07;;;;;;;10.93;7.90;;;9.00;99.90;;;;;;4996038;28;20468;-75
2022/05/03 04:05:35;;;;;;;10.18;7.72;;;9.10;99.90;;;;;;4994904;28;20513;-75
2022/05/03 04:08:01;;;;;;;9.00;6.78;;;9.10;99.90;;;;;;4998718;28;20494;-75
2022/05/03 04:10:27;;;;;;;13.77;8.18;;;9.10;99.90;;;;;;4999201;28;20022;-75
2022/05/03 04:12:52;;;;;;;11.95;8.20;;;9.00;99.90;;;;;;4994698;28;20022;-75
2022/05/03 04:15:18;;;;;;;12.65;8.32;;;9.00;99.90;;;;;;4996791;28;20038;-75
2022/05/03 04:17:44;;;;;;;12.57;8.45;;;9.00;99.90;;;;;;4981179;28;20033;-74
2022/05/03 04:20:18;;;;;;;10.90;7.82;;;9.00;99.90;;;;;;4979189;28;20022;-74
2022/05/03 04:22:44;;;;;;;10.45;8.38;;;9.00;99.90;;;;;;4991365;28;20032;-75
2022/05/03 04:25:10;;;;;;;11.13;8.43;;;9.00;99.90;;;;;;4996036;28;20031;-74
2022/05/03 04:27:36;;;;;;;14.30;9.95;;;9.00;99.90;;;;;;4995069;28;20042;-75
2022/05/03 04:30:03;;;;;;;12.55;8.75;;;9.00;99.90;;;;;;4998232;28;20021;-75
2022/05/03 04:32:30;;;;;;;13.77;9.50;;;9.00;99.90;;;;;;5000430;28;20019;-75
2022/05/03 04:34:55;;;;;;;14.52;10.65;;;9.00;99.90;;;;;;5003082;28;20109;-74
2022/05/03 04:37:21;;;;;;;16.92;11.18;;;9.00;99.90;;;;;;4998166;28;20594;-75
2022/05/03 04:39:47;;;;;;;15.57;11.25;;;8.90;99.90;;;;;;4998387;28;20030;-75
2022/05/03 04:42:13;;;;;;;13.88;9.82;;;8.90;99.90;;;;;;4999160;28;20088;-75
2022/05/03 04:44:38;;;;;;;17.45;11.30;;;9.00;99.90;;;;;;4996066;28;20034;-75
2022/05/03 04:47:04;;;;;;;15.02;10.77;;;9.00;99.90;;;;;;4998346;28;20038;-75
2022/05/03 04:49:30;;;;;;;14.90;10.63;;;9.00;99.90;;;;;;4985820;28;20030;-75
2022/05/03 04:51:56;;;;;;;16.73;12.02;;;9.00;99.90;;;;;;4997947;28;20093;-75
2022/05/03 04:54:23;;;;;;;12.60;9.52;;;9.00;99.90;;;;;;5001537;28;20026;-75
2022/05/03 04:56:56;;;;;;;13.63;9.52;;;9.00;99.90;;;;;;4998032;28;20045;-75
2022/05/03 04:59:22;;;;;;;20.67;14.23;;;9.00;99.90;;;;;;5001610;28;20083;-74
2022/05/03 05:01:47;;;;;;;19.13;13.40;;;9.10;99.90;;;;;;4998919;28;20294;-75
2022/05/03 05:04:13;;;;;;;17.27;10.02;;;9.20;99.90;;;;;;5000230;28;20031;-75
2022/05/03 05:06:39;;;;;;;13.55;9.77;;;9.30;99.90;;;;;;4997578;28;20490;-75
2022/05/03 05:09:04;;;;;;;15.05;9.95;;;9.40;99.90;;;;;;5001190;28;20540;-74
2022/05/03 05:11:30;;;;;;;14.95;8.70;;;9.60;99.90;;;;;;5000038;28;20553;-75
2022/05/03 05:13:56;;;;;;;13.30;9.20;;;9.70;99.90;;;;;;4999039;28;20026;-75
2022/05/03 05:16:21;;;;;;;12.40;9.00;;;9.90;99.90;;;;;;4999106;28;20332;-75
2022/05/03 05:18:47;;;;;;;15.77;10.40;;;10.10;99.90;;;;;;5000470;28;20073;-76
2022/05/03 05:21:13;;;;;;;12.00;9.82;;;10.20;99.90;;;;;;4999415;28;20461;-74
2022/05/03 05:23:38;;;;;;;15.65;10.52;;;10.30;99.90;;;;;;4997688;28;20040;-74
2022/05/03 05:26:04;;;;;;;15.13;9.00;;;10.50;99.90;;;;;;4982878;28;20064;-75
2022/05/03 05:28:30;;;;;;;12.77;9.20;;;10.60;99.90;;;;;;4985147;28;20631;-75
2022/05/03 05:30:56;;;;;;;17.92;10.18;;;10.70;99.90;;;;;;4999716;28;20744;-74
2022/05/03 05:33:22;;;;;;;12.27;9.98;;;10.90;99.90;;;;;;5000025;28;20030;-75
2022/05/03 05:35:50;;;;;;;13.45;10.25;;;11.00;99.90;;;;;;4977971;28;20084;-75
2022/05/03 05:38:17;;;;;;;14.25;9.70;;;11.10;99.90;;;;;;4997754;28;20121;-75
2022/05/03 05:40:43;;;;;;;13.23;9.50;;;11.30;99.90;;;;;;4996915;28;20032;-75
2022/05/03 05:43:09;;;;;;;12.18;9.32;;;11.40;99.90;;;;;;4998695;28;20117;-74
2022/05/03 05:45:35;;;;;;;12.75;9.25;;;11.50;99.90;;;;;;4982956;28;20117;-75
2022/05/03 05:48:01;;;;;;;13.68;8.93;;;11.70;99.90;;;;;;5000937;28;20480;-74
2022/05/03 05:50:27;;;;;;;12.35;8.95;;;11.70;99.90;;;;;;4996638;28;20026;-75
2022/05/03 05:55:37;;;;;;;14.98;9.38;;;11.80;99.90;;;;;;5002013;28;20606;-76
2022/05/03 05:58:04;;;;;;;12.90;9.30;;;11.90;99.90;;;;;;4996805;28;20034;-76
2022/05/03 06:00:30;;;;;;;18.00;9.90;;;12.00;99.90;;;;;;4990844;28;20022;-75
2022/05/03 06:02:57;;;;;;;16.52;10.70;;;12.10;99.90;;;;;;4996691;28;20553;-75
2022/05/03 06:05:22;;;;;;;17.05;10.55;;;12.10;99.90;;;;;;4995260;28;20033;-76
2022/05/03 06:07:48;;;;;;;12.05;9.50;;;12.00;99.90;;;;;;4996947;28;20037;-75
2022/05/03 06:10:13;;;;;;;16.65;10.77;;;12.00;99.90;;;;;;4977557;28;20093;-76
2022/05/03 06:12:39;;;;;;;13.68;10.52;;;12.10;99.90;;;;;;4992864;28;20041;-76
2022/05/03 06:15:06;;;;;;;17.85;10.25;;;12.00;99.90;;;;;;4981945;28;20033;-76
2022/05/03 06:17:31;;;;;;;15.43;10.60;;;11.90;99.90;;;;;;4994726;28;20041;-75
2022/05/03 06:19:57;;;;;;;16.13;11.13;;;12.00;99.90;;;;;;4990936;28;20037;-76
2022/05/03 06:22:23;;;;;;;16.33;11.18;;;12.00;99.90;;;;;;4993236;28;20033;-76
2022/05/03 06:24:49;;;;;;;17.20;10.43;;;12.00;99.90;;;;;;4970211;28;20490;-76
2022/05/03 06:27:15;;;;;;;12.50;10.50;;;12.00;99.90;;;;;;4992215;28;20092;-76
2022/05/03 06:29:42;;;;;;;16.88;11.00;;;12.00;99.90;;;;;;4998443;28;20057;-76
2022/05/03 06:32:10;;;;;;;14.13;10.82;;;12.20;99.90;;;;;;4993895;28;20022;-75
2022/05/03 06:34:37;;;;;;;16.65;10.40;;;12.30;99.90;;;;;;4990048;28;20030;-75
2022/05/03 06:37:04;;;;;;;14.75;10.60;;;12.40;99.90;;;;;;4982421;28;20036;-75
2022/05/03 06:39:29;;;;;;;15.20;10.70;;;12.50;99.90;;;;;;4991270;28;20113;-75
2022/05/03 06:41:55;;;;;;;14.20;10.85;;;12.60;99.90;;;;;;4996312;28;20117;-74
2022/05/03 06:44:22;;;;;;;14.98;10.93;;;12.70;99.90;;;;;;4987354;28;20031;-75
2022/05/03 06:46:49;;;;;;;15.85;9.80;;;12.80;99.90;;;;;;4995153;28;20460;-75
2022/05/03 06:49:15;;;;;;;14.90;10.10;;;12.90;99.90;;;;;;4993803;28;20049;-75
2022/05/03 06:51:40;;;;;;;13.55;9.45;;;13.10;99.90;;;;;;4979740;28;20103;-75
2022/05/03 06:54:06;;;;;;;14.07;10.27;;;13.30;99.90;;;;;;4994583;28;20469;-75
2022/05/03 06:56:35;;;;;;;11.77;9.50;;;13.60;99.90;;;;;;4999922;28;20022;-75
2022/05/03 06:59:06;;;;;;;14.05;10.05;;;13.80;99.90;;;;;;4995584;28;20497;-75
2022/05/03 07:01:32;;;;;;;15.52;10.27;;;14.00;99.90;;;;;;4992691;28;20652;-75
2022/05/03 07:03:58;;;;;;;14.18;9.55;;;14.20;99.90;;;;;;4990957;28;20052;-75
2022/05/03 07:06:23;;;;;;;13.80;9.15;;;14.30;99.90;;;;;;4989239;28;20029;-76
2022/05/03 07:08:49;;;;;;;12.45;9.85;;;14.40;99.90;;;;;;4984208;28;20109;-75
2022/05/03 07:11:15;;;;;;;15.10;10.27;;;14.40;99.90;;;;;;4975517;28;20025;-75
2022/05/03 07:13:41;;;;;;;14.18;9.27;;;14.50;99.90;;;;;;4978832;28;20449;-75
2022/05/03 07:16:06;;;;;;;14.07;9.70;;;14.50;99.90;;;;;;4978230;28;20386;-75
2022/05/03 07:24:00;;;;;;;17.65;11.30;;;14.60;99.90;;;;;;4995161;28;20037;-75
2022/05/03 07:26:26;;;;;;;11.48;9.50;;;14.70;99.90;;;;;;4996565;28;20022;-75
2022/05/03 07:28:51;;;;;;;16.80;10.05;;;14.90;99.90;;;;;;4977146;28;20025;-75
2022/05/03 07:31:18;;;;;;;14.60;10.57;;;15.00;99.90;;;;;;4994516;28;20030;-75
2022/05/03 07:33:45;;;;;;;15.80;10.07;;;15.00;99.90;;;;;;4993438;28;20037;-75
2022/05/03 07:36:11;;;;;;;14.77;10.02;;;15.10;99.90;;;;;;4997005;28;20026;-76
2022/05/03 07:38:37;;;;;;;14.15;10.13;;;15.20;99.90;;;;;;4997758;28;20044;-75
2022/05/03 07:41:03;;;;;;;15.35;9.60;;;15.30;99.90;;;;;;4977741;28;20029;-75
2022/05/03 07:43:29;;;;;;;14.30;9.93;;;15.50;99.90;;;;;;4981399;28;20027;-75
2022/05/03 07:45:55;;;;;;;15.00;10.68;;;15.70;99.90;;;;;;4993216;28;20037;-75
2022/05/03 07:48:21;;;;;;;12.95;9.73;;;15.70;99.90;;;;;;4990349;28;20022;-75
2022/05/03 07:50:47;;;;;;;12.77;10.07;;;15.80;99.90;;;;;;4995754;28;20398;-75
2022/05/03 07:53:13;;;;;;;13.60;10.15;;;15.80;99.90;;;;;;4994943;28;20037;-75
2022/05/03 07:55:39;;;;;;;14.77;9.77;;;15.90;99.90;;;;;;4981704;28;20061;-75
2022/05/03 07:58:05;;;;;;;9.73;8.48;;;15.90;99.90;;;;;;4983578;28;20061;-75
2022/05/03 08:00:30;;;;;;;13.77;10.35;;;16.00;99.90;;;;;;4990833;28;20446;-75
2022/05/03 08:02:56;;;;;;;12.40;8.50;;;16.00;99.90;;;;;;4955567;28;1141441;-75
2022/05/03 08:05:22;;;;;;;11.48;9.40;;;16.10;99.90;;;;;;4989403;28;20026;-75
2022/05/03 08:07:48;;;;;;;11.77;8.98;;;16.20;99.90;;;;;;4996734;28;20974;-74
2022/05/03 08:10:13;;;;;;;14.38;9.30;;;16.20;99.90;;;;;;4997907;28;20034;-75
2022/05/03 08:12:39;;;;;;;11.32;7.97;;;16.20;99.90;;;;;;4986878;28;20112;-75
2022/05/03 08:15:05;;;;;;;10.45;8.05;;;16.20;99.90;;;;;;4998868;28;20033;-74
2022/05/03 08:17:31;;;;;;;11.68;8.73;;;16.30;99.90;;;;;;4998348;28;20030;-75
2022/05/03 08:19:58;;;;;;;11.25;8.10;;;16.30;99.90;;;;;;4996481;28;20044;-75
2022/05/03 08:22:25;;;;;;;10.02;8.05;;;16.40;99.90;;;;;;4994262;28;20180;-75
2022/05/03 08:24:51;;;;;;;11.55;7.85;;;16.50;99.90;;;;;;4995831;28;20026;-75
2022/05/03 08:27:17;;;;;;;11.63;8.10;;;16.60;99.90;;;;;;4980775;28;20030;-75
2022/05/03 08:29:43;;;;;;;11.38;8.77;;;16.70;99.90;;;;;;5000378;28;20406;-75
2022/05/03 08:32:09;;;;;;;10.82;8.30;;;16.60;99.90;;;;;;5000507;28;20080;-74
2022/05/03 08:34:35;;;;;;;9.13;7.70;;;16.70;99.90;;;;;;4993510;28;20026;-75
2022/05/03 08:42:29;;;;;;;;;;;16.90;99.90;;;;;;4998977;28;20065;-75
2022/05/03 08:44:56;;;;;;;10.30;6.68;;;16.90;99.90;;;;;;4994199;28;19953;-74
2022/05/03 08:47:25;;;;;;;9.30;6.47;;;16.90;99.90;;;;;;4984656;28;20029;-75
2022/05/03 08:50:03;;;;;;;8.57;7.00;;;16.90;99.90;;;;;;4988245;28;20109;-75
2022/05/03 08:52:33;;;;;;;9.35;6.72;;;17.10;99.90;;;;;;4991841;28;20030;-74
2022/05/03 08:55:00;;;;;;;9.38;6.32;;;17.00;99.80;;;;;;4999261;28;20076;-75
2022/05/03 08:57:27;;;;;;;6.72;6.00;;;17.00;99.80;;;;;;4999304;28;20378;-74
2022/05/03 08:59:54;;;;;;;5.53;4.00;;;17.10;98.80;;;;;;4997026;28;20527;-75
2022/05/03 09:02:20;;;;;;;7.18;4.85;;;17.20;97.40;;;;;;4990632;28;20033;-75
2022/05/03 09:04:46;;;;;;;8.40;5.22;;;17.10;97.50;;;;;;4993045;28;20033;-75
2022/05/03 09:07:23;;;;;;;8.07;4.90;;;17.10;98.30;;;;;;4995287;28;20029;-75
2022/05/03 09:09:50;;;;;;;9.70;5.57;;;17.10;97.70;;;;;;5001617;28;20109;-75
2022/05/03 09:12:30;;;;;;;8.57;5.43;;;17.20;98.00;;;;;;4980141;28;20497;-75
2022/05/03 09:14:58;;;;;;;7.20;5.18;;;17.20;98.60;;;;;;4978890;28;20030;-75
2022/05/03 09:17:40;;;;;;;6.57;4.90;;;17.30;98.40;;;;;;4982993;28;20034;-75
2022/05/03 09:26:19;;;;;;;6.25;5.20;;;17.30;97.90;;;;;;4997104;28;20045;-75
2022/05/03 09:28:49;;;;;;;6.25;3.88;;;17.40;97.90;;;;;;4996651;28;20026;-75
2022/05/03 09:31:34;;;;;;;5.78;3.80;;;17.40;95.70;;;;;;4982335;28;20054;-75
2022/05/03 09:34:03;;;;;;;4.32;3.33;;;17.50;94.70;;;;;;5001709;28;20021;-74
2022/05/03 09:36:41;;;;;;;5.40;3.63;;;17.60;93.50;;;;;;4998572;28;20032;-75
2022/05/03 09:39:06;;;;;;;5.60;3.40;;;17.70;93.40;;;;;;5000155;28;20057;-75
2022/05/03 09:41:32;;;;;;;5.90;3.08;;;17.70;93.40;;;;;;4994945;28;20118;-75
2022/05/03 09:44:05;;;;;;;6.20;3.50;;;17.90;93.50;;;;;;4996868;28;20033;-75
2022/05/03 09:46:52;;;;;;;5.82;3.95;;;17.90;93.60;;;;;;4992532;28;20018;-75
2022/05/03 09:49:39;;;;;;;5.90;4.10;;;18.10;93.00;;;;;;4994061;28;20105;-75
2022/05/03 09:52:06;;;;;;;5.15;3.53;;;18.10;92.30;;;;;;4996024;28;20037;-75
2022/05/03 09:54:50;;;;;;;6.03;3.35;;;18.00;92.40;;;;;;4998050;28;20034;-75
2022/05/03 09:57:23;;;;;;;6.10;3.83;;;18.00;92.10;;;;;;4995452;28;20069;-74
2022/05/03 09:59:50;;;;;;;;;;;17.90;92.00;;;;;;4998038;28;20509;-75
2022/05/03 10:02:20;;;;;;;4.60;3.53;;;17.90;91.80;;;;;;5023471;23;20017;-78
2022/05/03 10:04:48;;;;;;;5.40;3.72;;;17.90;92.20;;;;;;4982574;28;20026;-78
2022/05/03 10:07:14;;;;;;;5.63;3.40;;;18.00;92.20;;;;;;4985465;28;20154;-79
2022/05/03 10:09:45;;;;;;;5.13;3.08;;;18.00;91.60;;;;;;4986373;28;20177;-77
2022/05/03 10:12:12;;;;;;;5.10;3.92;;;18.00;91.10;;;;;;4982113;28;20019;-75
2022/05/03 10:14:39;;;;;;;4.63;3.60;;;18.10;91.00;;;;;;4971837;28;20046;-76
2022/05/03 10:22:40;;;;;;;5.57;3.80;;;18.30;90.20;;;;;;4964648;28;20037;-76
2022/05/03 10:25:08;;;;;;;6.60;4.43;;;18.30;90.10;;;;;;4955771;28;20027;-76
2022/05/03 10:27:56;;;;;;;5.07;3.67;;;18.20;89.60;;;;;;4954552;28;20027;-76
2022/05/03 10:30:23;;;;;;;4.13;3.35;;;18.30;90.10;;;;;;4980443;28;20083;-76
2022/05/03 10:33:19;;;;;;;6.20;3.95;;;18.40;90.00;;;;;;4982864;28;20027;-76
2022/05/03 10:35:46;;;;;;;4.68;3.65;;;18.40;88.60;;;;;;4969613;28;20040;-76
2022/05/03 10:38:12;;;;;;;7.60;4.10;;;18.40;87.00;;;;;;4969302;28;20035;-76
2022/05/03 10:40:43;;;;;;;4.28;3.40;;;18.30;87.30;;;;;;4982156;28;20039;-76
2022/05/03 10:43:14;;;;;;;6.72;3.67;;;18.20;87.80;;;;;;4964828;28;20113;-76
2022/05/03 10:45:57;;;;;;;4.60;3.58;;;18.10;87.70;;;;;;4967431;28;20046;-77
2022/05/03 10:48:30;;;;;;;4.03;3.25;;;18.20;87.80;;;;;;4954159;28;20026;-76
2022/05/03 10:51:01;;;;;;;5.30;3.58;;;18.20;87.70;;;;;;4966993;28;20045;-76
2022/05/03 10:53:29;;;;;;;6.03;3.50;;;18.30;87.80;;;;;;4967344;28;20022;-76
2022/05/03 10:56:04;;;;;;;5.25;3.97;;;18.20;87.50;;;;;;4965596;28;20531;-77
2022/05/03 10:58:31;;;;;;;11.48;4.32;;;18.10;86.60;;;;;;4981937;28;20042;-77
2022/05/03 11:01:17;;;;;;;4.20;3.53;;;18.10;87.30;;;;;;4964613;28;20038;-76
2022/05/03 11:03:51;;;;;;;5.78;4.40;;;18.10;87.30;;;;;;4964361;28;20026;-77
2022/05/03 11:06:21;;;;;;;13.80;4.78;;;18.10;87.50;;;;;;4984206;28;20033;-78
2022/05/03 11:11:40;;;;;;;5.50;3.95;;;18.00;87.10;;;;;;4969440;28;20157;-76
2022/05/03 11:14:19;;;;;;;7.35;3.33;;;18.00;87.60;;;;;;4965929;28;20039;-76
2022/05/03 11:16:47;;;;;;;9.15;4.03;;;18.00;87.90;;;;;;4967852;28;20026;-78
2022/05/03 11:19:21;;;;;;;6.55;4.20;;;18.00;89.60;;;;;;4970091;28;20061;-77
2022/05/03 11:21:48;;;;;;;8.35;4.13;;;18.00;90.90;;;;;;4971212;28;20027;-77
2022/05/03 11:24:24;;;;;;;9.20;4.45;;;18.00;91.40;;;;;;4969991;28;20439;-77
2022/05/03 11:26:52;;;;;;;5.15;3.90;;;18.00;91.90;;;;;;4943342;28;20073;-76
2022/05/03 11:29:18;;;;;;;5.45;4.10;;;18.10;92.30;;;;;;4967031;28;20443;-76
2022/05/03 11:31:50;;;;;;;7.47;4.45;;;18.10;92.50;;;;;;4964442;28;20022;-75
2022/05/03 11:34:18;;;;;;;8.70;4.68;;;18.00;92.80;;;;;;4970577;28;20027;-76
2022/05/03 11:36:47;;;;;;;11.10;5.03;;;18.10;93.10;;;;;;4966459;28;20105;-76
2022/05/03 11:39:14;;;;;;;9.18;4.80;;;18.10;93.20;;;;;;4966817;28;20036;-76
2022/05/03 11:41:42;;;;;;;9.13;4.25;;;18.10;93.40;;;;;;4968754;28;20533;-76
2022/05/03 11:44:08;;;;;;;9.73;5.45;;;18.20;93.60;;;;;;4960021;28;23698;-78
2022/05/03 11:46:34;;;;;;;8.82;5.07;;;18.20;96.40;;;;;;4967376;28;20029;-76
2022/05/03 11:49:02;;;;;;;7.75;4.70;;;18.20;98.80;;;;;;4966149;28;20097;-76
2022/05/03 11:57:10;;;;;;;6.72;3.63;;;18.20;99.90;;;;;;4974588;28;20041;-76
2022/05/03 11:59:38;;;;;;;4.90;3.10;;;18.10;99.90;;;;;;4971724;28;20038;-76
2022/05/03 12:02:17;;;;;;;8.43;3.55;;;18.00;99.90;;;;;;4972952;28;20035;-76
2022/05/03 12:05:04;;;;;;;4.45;2.92;;;17.90;99.50;;;;;;4973689;28;20027;-76
2022/05/03 12:07:51;;;;;;;4.95;3.70;;;17.90;99.90;;;;;;4983778;28;20037;-76
2022/05/03 12:10:27;;;;;;;6.38;3.78;;;17.70;99.90;;;;;;4970485;28;20110;-76
2022/05/03 12:13:19;;;;;;;8.65;4.30;;;17.70;99.90;;;;;;4970334;28;20048;-75
2022/05/03 12:15:57;;;;;;;7.65;4.00;;;17.60;99.90;;;;;;4974870;28;20077;-75
2022/05/03 12:18:28;;;;;;;9.30;4.63;;;17.70;99.90;;;;;;4964053;28;20101;-75
2022/05/03 12:21:00;;;;;;;8.55;4.70;;;17.80;99.90;;;;;;4971388;28;20538;-76
2022/05/03 12:23:47;;;;;;;6.20;4.32;;;17.80;99.90;;;;;;4972157;28;20501;-76
2022/05/03 12:26:13;;;;;;;7.97;4.68;;;17.90;99.90;;;;;;4969252;28;20034;-76
2022/05/03 12:28:51;;;;;;;9.65;3.75;;;17.80;99.90;;;;;;4969454;28;20031;-76
2022/05/03 12:31:19;;;;;;;4.40;3.45;;;18.00;99.90;;;;;;4971627;28;20041;-76
2022/05/03 12:33:51;;;;;;;5.90;3.53;;;18.00;99.90;;;;;;4970786;28;20035;-76
2022/05/03 12:36:37;;;;;;;5.03;3.73;;;18.10;99.10;;;;;;4967529;28;20027;-76
2022/05/03 12:39:22;;;;;;;5.53;4.13;;;18.20;99.70;;;;;;4969409;28;20300;-76
2022/05/03 12:42:01;;;;;;;6.78;4.45;;;18.20;99.90;;;;;;4970715;28;20455;-76
2022/05/03 12:44:31;;;;;;;7.68;4.63;;;18.40;99.90;;;;;;4961244;28;20070;-76
2022/05/03 12:47:06;;;;;;;7.57;3.80;;;18.40;99.90;;;;;;4976194;28;20037;-76
2022/05/03 12:49:33;;;;;;;6.38;3.58;;;18.40;99.20;;;;;;4974077;28;20034;-76
2022/05/03 12:51:59;;;;;;;7.03;3.97;;;18.50;97.90;;;;;;4970742;28;20846;-76
2022/05/03 12:54:25;;;;;;;6.65;3.75;;;18.60;99.00;;;;;;4973227;28;20399;-76
2022/05/03 12:59:35;;;;;;;4.07;3.10;;;18.70;97.50;;;;;;4977987;28;20033;-76
2022/05/03 13:02:14;;;;;;;5.28;3.50;;;18.70;97.50;;;;;;4970514;28;20027;-76
2022/05/03 13:04:48;;;;;;;4.57;3.03;;;18.80;97.50;;;;;;4974748;28;20844;-74
2022/05/03 13:07:15;;;;;;;5.85;2.90;;;18.80;98.10;;;;;;4989495;28;20031;-78
2022/05/03 13:09:40;;;;;;;6.00;3.25;;;18.90;98.10;;;;;;5000056;28;20031;-77
2022/05/03 13:12:07;;;;;;;5.10;3.30;;;18.90;98.10;;;;;;4995931;28;20038;-77
2022/05/03 13:14:33;;;;;;;6.20;3.38;;;18.90;96.30;;;;;;4970119;28;20031;-75
2022/05/03 13:16:59;;;;;;;6.68;3.25;;;18.90;96.60;;;;;;4974338;28;20027;-76
2022/05/03 13:19:30;;;;;;;3.25;1.90;;;19.00;96.40;;;;;;4970845;28;20034;-76
2022/05/03 13:21:59;;;;;;;3.17;2.30;;;18.70;94.90;;;;;;4966354;28;20033;-76
2022/05/03 13:24:25;;;;;;;3.50;1.67;;;18.70;94.50;;;;;;4967187;28;20037;-76
2022/05/03 13:26:51;;;;;;;3.35;1.60;;;18.60;93.80;;;;;;4972093;28;20027;-75
2022/05/03 13:29:19;;;;;;;1.98;1.30;;;18.60;92.90;;;;;;4971846;28;20018;-76
2022/05/03 13:31:45;;;;;;;7.30;1.50;;;18.60;92.00;;;;;;4969718;28;20503;-76
2022/05/03 13:34:12;;;;;;;3.25;1.88;;;18.60;90.80;;;;;;4973325;28;20031;-76
2022/05/03 13:42:08;;;;;;;4.50;1.80;;;18.50;96.00;;;;;;4970353;28;20033;-76
2022/05/03 13:44:39;;;;;;;4.28;1.67;;;18.40;95.40;;;;;;4968904;28;20546;-76
2022/05/03 13:47:08;;;;;;;3.65;2.03;;;18.40;95.40;;;;;;4975976;28;20035;-76
2022/05/03 13:49:34;;;;;;;3.88;1.80;;;18.50;95.00;;;;;;4961174;28;20024;-76
2022/05/03 13:52:00;;;;;;;3.63;1.67;;;18.50;94.70;;;;;;4967891;28;20023;-76
2022/05/03 13:54:26;;;;;;;3.65;1.98;;;18.50;94.50;;;;;;4971116;28;20027;-76